Time;durP1;ratioP1;P1;durP2;ratioP2;P2;SDS_P1;SDS_P2;PMS_P1;PMS_P2;Temp;Humidity;BMP_temperature;BMP_pressure;BME280_temperature;BME280_humidity;BME280_pressure;Samples;Min_cycle;Max_cycle;Signal;HPM_P1;HPM_P2
2023/12/05 00:00:05;;;;;;;24.65;14.45;;;0.40;99.90;;;;;;5082769;28;20041;-81
2023/12/05 00:02:31;;;;;;;;;;;0.10;99.90;;;;;;5083609;28;20051;-79
2023/12/05 00:04:57;;;;;;;22.60;11.90;;;0.10;99.90;;;;;;5079967;28;19920;-80
2023/12/05 00:07:23;;;;;;;26.48;12.57;;;0.10;99.90;;;;;;5079635;28;20405;-82
2023/12/05 00:09:49;;;;;;;22.55;12.88;;;0.10;99.90;;;;;;5080783;28;20056;-80
2023/12/05 00:12:15;;;;;;;28.48;15.43;;;0.20;99.90;;;;;;5042290;28;20055;-82
2023/12/05 00:14:44;;;;;;;25.30;13.25;;;0.00;99.90;;;;;;5088121;28;20045;-83
2023/12/05 00:17:09;;;;;;;;;;;0.00;99.90;;;;;;5051416;28;20055;-79
2023/12/05 00:19:37;;;;;;;27.10;14.23;;;1.30;99.90;;;;;;5052776;28;19983;-80
2023/12/05 00:22:02;;;;;;;24.90;14.18;;;-0.10;99.90;;;;;;5062610;28;20416;-81
2023/12/05 00:24:28;;;;;;;21.60;12.90;;;-0.10;99.90;;;;;;5086042;28;20048;-82
2023/12/05 00:26:54;;;;;;;25.88;13.77;;;-0.10;99.90;;;;;;5097339;28;20047;-81
2023/12/05 00:29:20;;;;;;;26.98;13.68;;;-0.10;99.90;;;;;;5081859;28;20071;-81
2023/12/05 00:31:45;;;;;;;24.88;13.77;;;0.40;99.90;;;;;;5054109;28;20036;-82
2023/12/05 00:34:11;;;;;;;23.55;13.15;;;-0.10;99.90;;;;;;5087061;28;20037;-81
2023/12/05 00:36:37;;;;;;;20.83;12.43;;;-0.20;99.90;;;;;;5050631;28;20099;-82
2023/12/05 00:39:03;;;;;;;27.10;14.90;;;-0.20;99.90;;;;;;5078918;28;20044;-81
2023/12/05 00:41:30;;;;;;;25.40;13.68;;;1.50;99.90;;;;;;5090839;28;20044;-81
2023/12/05 00:43:55;;;;;;;26.60;14.38;;;-0.30;99.90;;;;;;5085675;28;20048;-81
2023/12/05 00:46:22;;;;;;;24.92;14.07;;;-0.20;99.90;;;;;;5065577;28;20048;-82
2023/12/05 00:48:48;;;;;;;24.92;13.55;;;-0.20;99.90;;;;;;5085955;28;20049;-82
2023/12/05 00:51:14;;;;;;;28.35;14.65;;;-0.20;99.90;;;;;;5081545;28;20036;-82
2023/12/05 00:53:40;;;;;;;26.88;15.52;;;-0.20;99.90;;;;;;5065989;28;20075;-81
2023/12/05 00:56:14;;;;;;;28.40;16.10;;;-0.20;99.90;;;;;;5074426;28;20045;-82
2023/12/05 00:58:40;;;;;;;28.25;15.63;;;1.40;99.90;;;;;;5038811;28;20479;-82
2023/12/05 01:01:07;;;;;;;29.73;16.23;;;-0.30;99.90;;;;;;5082192;28;20518;-81
2023/12/05 01:03:33;;;;;;;30.75;16.45;;;-0.20;99.90;;;;;;5050618;28;20021;-82
2023/12/05 01:05:59;;;;;;;26.77;14.80;;;-0.20;99.90;;;;;;5074097;28;20100;-81
2023/12/05 01:08:25;;;;;;;26.65;15.95;;;-0.30;99.90;;;;;;5072543;28;20490;-82
2023/12/05 01:10:50;;;;;;;25.40;14.25;;;-0.20;99.90;;;;;;5038212;28;20040;-81
2023/12/05 01:13:16;;;;;;;25.92;14.45;;;-0.20;99.90;;;;;;5058572;28;20037;-80
2023/12/05 01:15:42;;;;;;;27.33;14.82;;;-0.20;99.90;;;;;;5071228;28;20041;-82
2023/12/05 01:18:07;;;;;;;28.35;16.33;;;-0.20;99.90;;;;;;5064758;28;20185;-81
2023/12/05 01:20:33;;;;;;;27.00;15.50;;;-0.20;99.90;;;;;;5034070;28;20040;-81
2023/12/05 01:22:59;;;;;;;29.13;16.00;;;-0.20;99.90;;;;;;5096655;28;20048;-83
2023/12/05 01:25:25;;;;;;;30.85;16.13;;;-0.20;99.90;;;;;;5044100;28;20382;-80
2023/12/05 01:27:51;;;;;;;28.00;15.52;;;-0.20;99.90;;;;;;5048719;28;20120;-84
2023/12/05 01:30:17;;;;;;;29.90;17.35;;;-0.20;99.90;;;;;;5062694;28;20127;-82
2023/12/05 01:32:43;;;;;;;27.17;16.65;;;0.00;99.90;;;;;;5040966;28;20194;-80
2023/12/05 01:35:09;;;;;;;31.02;16.67;;;-0.20;99.90;;;;;;5065387;28;20040;-81
2023/12/05 01:37:37;;;;;;;27.98;15.32;;;-0.20;99.90;;;;;;5069829;28;20193;-83
2023/12/05 01:40:05;;;;;;;28.23;16.70;;;-0.10;99.90;;;;;;5061646;28;20045;-82
2023/12/05 01:42:38;;;;;;;27.90;14.90;;;-0.20;99.90;;;;;;5060159;28;20041;-82
2023/12/05 01:45:08;;;;;;;27.40;16.05;;;-0.20;99.90;;;;;;5057006;28;20044;-82
2023/12/05 01:47:35;;;;;;;27.50;15.80;;;-0.20;99.90;;;;;;5070815;28;20036;-83
2023/12/05 01:50:08;;;;;;;29.65;16.27;;;-0.20;99.90;;;;;;5058993;28;20041;-82
2023/12/05 01:52:34;;;;;;;26.75;14.90;;;0.00;99.90;;;;;;5045143;28;20046;-80
2023/12/05 01:54:59;;;;;;;29.33;17.25;;;-0.50;99.90;;;;;;5065213;28;20041;-82
2023/12/05 01:57:26;;;;;;;30.17;16.58;;;-0.20;99.90;;;;;;5082935;28;20133;-80
2023/12/05 01:59:53;;;;;;;28.08;17.73;;;0.90;99.90;;;;;;5066109;28;20044;-82
2023/12/05 02:02:19;;;;;;;31.98;16.27;;;-0.20;99.90;;;;;;5050754;28;20048;-81
2023/12/05 02:04:45;;;;;;;27.15;15.95;;;-0.20;99.90;;;;;;5070151;28;20048;-82
2023/12/05 02:07:18;;;;;;;29.08;16.08;;;-0.20;99.90;;;;;;5087553;28;20045;-80
2023/12/05 02:09:44;;;;;;;31.33;17.20;;;-0.20;99.90;;;;;;5100609;28;20059;-82
2023/12/05 02:12:10;;;;;;;29.38;17.20;;;-0.20;99.90;;;;;;5062537;28;20045;-80
2023/12/05 02:14:51;;;;;;;27.70;16.55;;;-0.20;99.90;;;;;;5055825;28;20042;-82
2023/12/05 02:17:20;;;;;;;25.83;15.50;;;-0.30;99.90;;;;;;5092684;28;20128;-83
2023/12/05 02:20:06;;;;;;;31.08;16.13;;;-0.20;99.90;;;;;;5082000;28;20036;-81
2023/12/05 02:22:50;;;;;;;27.77;15.43;;;1.10;99.90;;;;;;5063553;28;20075;-80
2023/12/05 02:25:47;;;;;;;26.58;14.80;;;-0.20;99.90;;;;;;5065099;28;20080;-82
2023/12/05 02:28:14;;;;;;;27.02;14.73;;;-0.20;99.90;;;;;;5053962;28;20045;-82
2023/12/05 02:30:40;;;;;;;28.23;16.40;;;-0.20;99.90;;;;;;5073290;28;20131;-82
2023/12/05 02:33:06;;;;;;;29.92;16.10;;;-0.20;99.90;;;;;;5058817;28;20498;-81
2023/12/05 02:35:32;;;;;;;29.42;16.95;;;-0.20;99.90;;;;;;5050662;28;20048;-83
2023/12/05 02:38:16;;;;;;;28.65;15.90;;;-0.20;99.90;;;;;;5082500;28;20044;-82
2023/12/05 02:41:02;;;;;;;28.90;16.02;;;-0.20;99.90;;;;;;5065700;28;20051;-80
2023/12/05 02:43:46;;;;;;;31.77;17.38;;;-0.20;99.90;;;;;;5065165;28;20040;-81
2023/12/05 02:46:19;;;;;;;28.40;15.77;;;-0.20;99.90;;;;;;5082916;28;20045;-80
2023/12/05 02:48:49;;;;;;;29.70;17.08;;;-0.20;99.90;;;;;;5086569;28;20417;-80
2023/12/05 02:51:15;;;;;;;27.48;16.40;;;0.20;99.90;;;;;;5049872;28;20040;-81
2023/12/05 02:53:41;;;;;;;31.10;17.33;;;-0.20;99.90;;;;;;5101507;28;20052;-81
2023/12/05 02:56:07;;;;;;;30.35;18.02;;;0.40;99.90;;;;;;5067265;28;20055;-81
2023/12/05 02:58:33;;;;;;;30.25;18.80;;;-0.20;99.90;;;;;;5066227;28;20386;-81
2023/12/05 03:01:00;;;;;;;31.00;20.02;;;-0.20;99.90;;;;;;5066847;28;20066;-82
2023/12/05 03:03:26;;;;;;;35.33;18.50;;;-0.20;99.90;;;;;;5032767;28;20040;-82
2023/12/05 03:05:53;;;;;;;30.77;18.70;;;-0.20;99.90;;;;;;5084806;28;20076;-84
2023/12/05 03:08:22;;;;;;;28.20;16.63;;;0.90;99.90;;;;;;5069916;28;20048;-82
2023/12/05 03:10:48;;;;;;;30.10;18.40;;;-0.20;99.90;;;;;;5090201;28;20044;-80
2023/12/05 03:13:13;;;;;;;29.55;18.35;;;0.00;99.90;;;;;;5072044;28;20095;-82
2023/12/05 03:15:39;;;;;;;30.83;17.80;;;-0.30;99.90;;;;;;5064512;28;20105;-81
2023/12/05 03:18:07;;;;;;;30.45;17.73;;;-0.20;99.90;;;;;;5080461;28;20128;-80
2023/12/05 03:20:33;;;;;;;31.58;17.50;;;-1.00;99.90;;;;;;5102834;28;20035;-81
2023/12/05 03:22:59;;;;;;;32.70;18.48;;;-0.30;99.90;;;;;;5110814;28;20040;-82
2023/12/05 03:25:24;;;;;;;32.90;19.02;;;-0.30;99.90;;;;;;5081554;28;20083;-82
2023/12/05 03:27:50;;;;;;;32.95;18.52;;;0.80;99.90;;;;;;5099752;28;20036;-81
2023/12/05 03:30:16;;;;;;;34.20;20.00;;;-0.30;99.90;;;;;;5072528;28;20075;-80
2023/12/05 03:32:41;;;;;;;33.85;18.17;;;-0.30;99.90;;;;;;5094038;28;20154;-83
2023/12/05 03:35:07;;;;;;;31.52;17.38;;;-0.30;99.90;;;;;;5107798;28;20032;-82
2023/12/05 03:37:33;;;;;;;33.75;19.63;;;-0.30;99.90;;;;;;5058846;28;20036;-81
2023/12/05 03:39:59;;;;;;;33.10;18.30;;;-0.20;99.90;;;;;;5079182;28;20048;-82
2023/12/05 03:42:24;;;;;;;33.53;19.85;;;-0.30;99.90;;;;;;5084780;28;20098;-83
2023/12/05 03:44:50;;;;;;;33.40;19.00;;;-0.30;99.90;;;;;;5063923;28;20123;-83
2023/12/05 03:47:16;;;;;;;35.67;19.40;;;-0.30;99.90;;;;;;5065976;28;20055;-82
2023/12/05 03:49:42;;;;;;;34.97;20.08;;;0.10;99.90;;;;;;5066606;28;20083;-82
2023/12/05 03:52:07;;;;;;;36.55;19.63;;;-0.30;99.90;;;;;;5080637;28;20082;-82
2023/12/05 03:54:33;;;;;;;34.33;19.33;;;-0.30;99.90;;;;;;5062778;28;20032;-82
2023/12/05 03:56:59;;;;;;;36.58;19.60;;;-0.30;99.90;;;;;;5081300;28;20056;-82
2023/12/05 03:59:24;;;;;;;34.20;19.48;;;-0.30;99.90;;;;;;5065591;28;20087;-82
2023/12/05 04:01:50;;;;;;;35.20;20.30;;;-0.20;99.90;;;;;;5044222;28;20049;-82
2023/12/05 04:04:16;;;;;;;34.22;18.42;;;-0.30;99.90;;;;;;5086504;28;20048;-81
2023/12/05 04:06:41;;;;;;;34.85;18.90;;;-0.30;99.90;;;;;;5091455;28;20064;-84
2023/12/05 04:09:07;;;;;;;39.83;21.75;;;-0.30;99.90;;;;;;5072134;28;20044;-81
2023/12/05 04:11:33;;;;;;;38.58;19.55;;;-0.30;99.90;;;;;;5075095;28;20049;-81
2023/12/05 04:14:00;;;;;;;39.17;21.80;;;0.50;99.90;;;;;;5050128;28;20052;-81
2023/12/05 04:16:26;;;;;;;40.90;22.20;;;-0.30;99.90;;;;;;5054134;28;20067;-81
2023/12/05 04:18:53;;;;;;;36.17;20.42;;;0.80;99.90;;;;;;5077948;28;20062;-83
2023/12/05 04:21:20;;;;;;;38.25;20.27;;;-0.50;99.90;;;;;;5092681;28;20040;-80
2023/12/05 04:23:46;;;;;;;38.22;21.20;;;-0.30;99.90;;;;;;5061043;28;20364;-81
2023/12/05 04:26:18;;;;;;;39.15;21.08;;;-0.90;99.90;;;;;;5094620;28;20068;-81
2023/12/05 04:28:44;;;;;;;39.15;19.52;;;-0.50;99.90;;;;;;5085542;28;20052;-82
2023/12/05 04:31:11;;;;;;;41.72;21.05;;;-0.80;99.90;;;;;;5038438;28;20048;-82
2023/12/05 04:33:39;;;;;;;38.53;20.60;;;-0.40;99.90;;;;;;5073670;28;20032;-83
2023/12/05 04:36:05;;;;;;;40.45;19.48;;;-0.40;99.90;;;;;;5072360;28;20032;-83
2023/12/05 04:38:35;;;;;;;44.13;23.23;;;-0.40;99.90;;;;;;5053049;28;20052;-83
2023/12/05 04:41:02;;;;;;;41.40;22.92;;;-0.40;99.90;;;;;;5055446;28;20102;-83
2023/12/05 04:43:29;;;;;;;44.72;23.48;;;-0.40;99.90;;;;;;5051598;28;20104;-83
2023/12/05 04:45:54;;;;;;;44.58;22.13;;;-0.40;99.90;;;;;;5078045;28;20075;-81
2023/12/05 04:48:20;;;;;;;47.70;22.80;;;0.50;99.90;;;;;;5066655;28;20041;-81
2023/12/05 04:50:46;;;;;;;43.08;21.48;;;-0.40;99.90;;;;;;5061485;28;20064;-84
2023/12/05 04:53:11;;;;;;;49.35;26.35;;;-0.40;99.90;;;;;;5070355;28;20124;-82
2023/12/05 04:55:37;;;;;;;41.97;22.35;;;-0.40;99.90;;;;;;5078194;28;20049;-84
2023/12/05 04:58:03;;;;;;;39.78;20.60;;;0.40;99.90;;;;;;5082247;28;20044;-81
2023/12/05 05:00:29;;;;;;;43.10;22.15;;;-0.40;99.90;;;;;;5054725;28;20082;-83
2023/12/05 05:02:54;;;;;;;43.92;21.80;;;-0.40;99.90;;;;;;5041810;28;20211;-83
2023/12/05 05:05:20;;;;;;;40.97;20.58;;;-0.40;99.90;;;;;;5059750;28;20105;-83
2023/12/05 05:07:46;;;;;;;42.67;22.98;;;1.30;99.90;;;;;;5081693;28;20044;-82
2023/12/05 05:10:12;;;;;;;41.92;23.02;;;1.10;99.90;;;;;;5098603;28;20136;-84
2023/12/05 05:12:37;;;;;;;42.20;21.10;;;-0.40;99.90;;;;;;5053777;28;20045;-84
2023/12/05 05:15:04;;;;;;;41.10;21.95;;;-0.40;99.90;;;;;;5094367;28;20537;-83
2023/12/05 05:17:30;;;;;;;42.75;20.15;;;-1.40;99.90;;;;;;5096550;28;20068;-83
2023/12/05 05:19:55;;;;;;;39.22;20.33;;;-0.30;99.90;;;;;;5080637;28;20108;-82
2023/12/05 05:22:21;;;;;;;40.30;19.88;;;-0.40;99.90;;;;;;5081974;28;20048;-84
2023/12/05 05:24:47;;;;;;;39.55;21.13;;;-0.40;99.90;;;;;;5068452;28;20037;-84
2023/12/05 05:27:13;;;;;;;36.72;19.83;;;-0.40;99.90;;;;;;5070056;28;20039;-83
2023/12/05 05:29:39;;;;;;;40.45;20.23;;;-0.40;99.90;;;;;;5072550;28;20040;-82
2023/12/05 05:32:05;;;;;;;39.42;19.90;;;0.30;99.90;;;;;;5083888;28;20047;-81
2023/12/05 05:34:30;;;;;;;36.42;19.98;;;-0.50;99.90;;;;;;5070066;28;20027;-82
2023/12/05 05:36:59;;;;;;;39.03;21.05;;;-0.40;99.90;;;;;;5059365;28;20105;-81
2023/12/05 05:39:24;;;;;;;42.10;20.40;;;-0.40;99.90;;;;;;5086237;28;20051;-84
2023/12/05 05:41:50;;;;;;;41.97;21.48;;;-0.30;99.90;;;;;;5083293;28;20041;-83
2023/12/05 05:44:16;;;;;;;39.13;21.48;;;-0.40;99.90;;;;;;5052254;28;20083;-83
2023/12/05 05:46:41;;;;;;;38.00;18.80;;;-0.40;99.90;;;;;;5087480;28;20090;-84
2023/12/05 05:49:07;;;;;;;43.45;22.33;;;0.10;99.90;;;;;;5047785;28;20048;-83
2023/12/05 05:51:34;;;;;;;38.42;21.48;;;-0.40;99.90;;;;;;5054614;28;20054;-82
2023/12/05 05:54:00;;;;;;;38.92;21.20;;;-0.40;99.90;;;;;;5105460;28;20047;-82
2023/12/05 05:56:26;;;;;;;41.05;21.52;;;-0.40;99.90;;;;;;5052481;28;20044;-84
2023/12/05 05:58:52;;;;;;;42.75;21.27;;;-0.40;99.90;;;;;;5040872;28;20395;-84
2023/12/05 06:01:18;;;;;;;43.60;22.35;;;-0.80;99.90;;;;;;5082072;28;20054;-84
2023/12/05 06:03:44;;;;;;;45.72;21.55;;;1.30;99.90;;;;;;5066151;28;20114;-81
2023/12/05 06:06:12;;;;;;;40.83;21.63;;;-0.40;99.90;;;;;;5067614;28;20040;-83
2023/12/05 06:08:38;;;;;;;39.85;19.80;;;-0.40;99.90;;;;;;5071379;28;20060;-84
2023/12/05 06:11:04;;;;;;;42.78;21.73;;;-0.40;99.90;;;;;;5054295;28;20044;-83
2023/12/05 06:13:30;;;;;;;44.78;21.42;;;-0.40;99.90;;;;;;5050414;28;20066;-84
2023/12/05 06:15:56;;;;;;;45.72;24.25;;;-0.40;99.90;;;;;;5083103;28;20040;-83
2023/12/05 06:18:22;;;;;;;43.05;21.60;;;-0.40;99.90;;;;;;5049953;28;20045;-82
2023/12/05 06:20:51;;;;;;;43.63;21.55;;;-0.40;99.90;;;;;;5072145;28;20040;-83
2023/12/05 06:23:17;;;;;;;45.67;23.27;;;-0.40;99.90;;;;;;5053688;28;20037;-83
2023/12/05 06:25:43;;;;;;;47.03;22.30;;;-0.40;99.90;;;;;;5054727;28;20122;-81
2023/12/05 06:28:08;;;;;;;45.47;20.58;;;-0.40;99.90;;;;;;5056141;28;20147;-82
2023/12/05 06:30:37;;;;;;;43.47;21.70;;;1.30;99.90;;;;;;5054684;28;20051;-83
2023/12/05 06:33:03;;;;;;;41.38;21.80;;;1.40;99.90;;;;;;5099404;28;20051;-82
2023/12/05 06:35:28;;;;;;;38.80;21.33;;;-1.10;99.90;;;;;;5073534;28;20549;-82
2023/12/05 06:37:54;;;;;;;40.35;20.73;;;0.00;99.90;;;;;;5082615;28;20109;-83
2023/12/05 06:40:20;;;;;;;46.22;21.52;;;-0.40;99.90;;;;;;5091832;28;20047;-83
2023/12/05 06:42:49;;;;;;;47.47;23.60;;;-0.40;99.90;;;;;;5086677;28;20079;-83
2023/12/05 06:45:15;;;;;;;47.75;22.35;;;0.80;99.90;;;;;;5105608;28;20138;-83
2023/12/05 06:47:41;;;;;;;43.97;21.45;;;-0.40;99.90;;;;;;5072871;28;20055;-84
2023/12/05 06:50:11;;;;;;;45.35;21.77;;;-0.40;99.90;;;;;;5072145;28;20041;-83
2023/12/05 06:52:37;;;;;;;37.92;19.23;;;-0.40;99.90;;;;;;5053501;28;20048;-82
2023/12/05 06:55:07;;;;;;;41.53;22.08;;;-0.70;99.90;;;;;;5055819;28;20059;-83
2023/12/05 06:57:33;;;;;;;40.65;19.95;;;-0.30;99.90;;;;;;5094425;28;20037;-81
2023/12/05 06:59:59;;;;;;;47.42;22.90;;;-0.30;99.90;;;;;;5049284;28;20053;-81
2023/12/05 07:02:25;;;;;;;39.60;20.55;;;-0.30;99.90;;;;;;5098582;28;20041;-83
2023/12/05 07:04:51;;;;;;;38.90;20.73;;;-0.30;99.90;;;;;;5100450;28;20073;-84
2023/12/05 07:07:17;;;;;;;44.20;21.30;;;-0.30;99.90;;;;;;5068086;28;20072;-83
2023/12/05 07:09:43;;;;;;;44.35;22.13;;;-0.30;99.90;;;;;;5043721;28;20045;-84
2023/12/05 07:12:09;;;;;;;49.13;23.80;;;-0.30;99.90;;;;;;5062264;28;20059;-84
2023/12/05 07:14:35;;;;;;;43.00;22.77;;;-0.30;99.90;;;;;;5097194;28;20037;-84
2023/12/05 07:17:05;;;;;;;42.95;21.77;;;-0.30;99.90;;;;;;5045809;28;20033;-84
2023/12/05 07:19:31;;;;;;;42.95;23.27;;;-0.40;99.90;;;;;;5041747;28;20151;-82
2023/12/05 07:21:56;;;;;;;44.00;22.33;;;0.00;99.90;;;;;;5043050;28;20137;-80
2023/12/05 07:24:22;;;;;;;45.60;23.42;;;-0.30;99.90;;;;;;5074509;28;20056;-82
2023/12/05 07:26:48;;;;;;;48.05;22.15;;;-0.30;99.90;;;;;;5067906;28;20055;-80
2023/12/05 07:29:17;;;;;;;48.50;24.85;;;-0.40;99.90;;;;;;5089183;28;20091;-80
2023/12/05 07:31:43;;;;;;;45.85;23.40;;;-0.30;99.90;;;;;;5055182;28;20049;-81
2023/12/05 07:34:12;;;;;;;46.17;23.38;;;0.60;99.90;;;;;;5056177;28;20128;-84
2023/12/05 07:36:44;;;;;;;48.35;24.45;;;-0.30;99.90;;;;;;5051658;28;20045;-82
2023/12/05 07:39:10;;;;;;;50.17;24.55;;;0.90;99.90;;;;;;5052682;28;20041;-81
2023/12/05 07:41:39;;;;;;;45.80;23.42;;;1.40;99.90;;;;;;5053076;28;20128;-81
2023/12/05 07:44:10;;;;;;;42.53;22.23;;;-0.40;99.90;;;;;;5061262;28;20049;-81
2023/12/05 07:46:40;;;;;;;42.58;21.70;;;-0.50;99.90;;;;;;5073903;28;20092;-81
2023/12/05 07:49:06;;;;;;;41.13;22.67;;;-0.30;99.90;;;;;;5069530;28;20076;-82
2023/12/05 07:51:32;;;;;;;45.97;22.10;;;0.30;99.90;;;;;;5049047;28;20045;-80
2023/12/05 07:53:58;;;;;;;41.58;20.95;;;-0.40;99.90;;;;;;5068735;28;20041;-81
2023/12/05 07:56:23;;;;;;;43.50;23.48;;;-0.30;99.90;;;;;;5051581;28;20041;-80
2023/12/05 07:58:49;;;;;;;47.90;22.35;;;-0.30;99.90;;;;;;5065710;28;20041;-81
2023/12/05 08:01:15;;;;;;;48.25;22.52;;;-0.30;99.90;;;;;;5066683;28;20057;-80
2023/12/05 08:03:40;;;;;;;46.90;24.08;;;-0.30;99.90;;;;;;5064693;28;20044;-80
2023/12/05 08:06:08;;;;;;;43.17;23.92;;;1.20;99.90;;;;;;5065658;28;20510;-80
2023/12/05 08:08:34;;;;;;;49.38;23.95;;;-0.30;99.90;;;;;;5049705;28;20084;-81
2023/12/05 08:11:01;;;;;;;44.85;22.90;;;-0.30;99.90;;;;;;5051978;28;20170;-80
2023/12/05 08:13:27;;;;;;;40.25;21.45;;;-0.30;99.90;;;;;;5029387;28;20045;-81
2023/12/05 08:15:53;;;;;;;43.25;23.33;;;-0.30;99.90;;;;;;5058547;28;20152;-80
2023/12/05 08:18:19;;;;;;;41.08;23.13;;;1.60;99.90;;;;;;5059717;28;20081;-81
2023/12/05 08:20:45;;;;;;;41.50;22.40;;;-0.30;99.90;;;;;;5063590;28;20052;-80
2023/12/05 08:23:11;;;;;;;43.47;22.80;;;-0.20;99.90;;;;;;5062818;28;20100;-80
2023/12/05 08:25:37;;;;;;;38.38;20.67;;;0.80;99.90;;;;;;5064300;28;20048;-80
2023/12/05 08:28:02;;;;;;;40.22;22.80;;;0.00;99.90;;;;;;5060596;28;20033;-81
2023/12/05 08:30:28;;;;;;;43.17;21.95;;;-0.10;99.90;;;;;;5086012;28;20075;-81
2023/12/05 08:32:57;;;;;;;41.28;21.98;;;-0.20;99.90;;;;;;5048964;28;20049;-80
2023/12/05 08:35:23;;;;;;;38.05;20.75;;;1.30;99.90;;;;;;5091290;28;20106;-81
2023/12/05 08:37:49;;;;;;;41.20;22.10;;;-0.20;99.90;;;;;;5070399;28;20066;-80
2023/12/05 08:40:18;;;;;;;39.00;21.50;;;-0.20;99.90;;;;;;5067268;28;20049;-80
2023/12/05 08:42:44;;;;;;;39.38;23.00;;;0.70;99.90;;;;;;5068262;28;20045;-80
2023/12/05 08:45:11;;;;;;;38.67;21.58;;;-0.20;99.90;;;;;;5094692;28;20071;-79
2023/12/05 08:47:37;;;;;;;35.60;20.05;;;0.60;99.90;;;;;;5102988;28;20049;-80
2023/12/05 08:50:04;;;;;;;34.80;20.83;;;1.30;99.90;;;;;;5050530;28;20077;-79
2023/12/05 08:52:30;;;;;;;36.20;20.13;;;-0.10;99.90;;;;;;5054721;28;20048;-80
2023/12/05 08:54:56;;;;;;;35.25;19.67;;;1.30;99.90;;;;;;5104167;28;20033;-81
2023/12/05 08:57:22;;;;;;;37.03;20.55;;;-0.10;99.90;;;;;;5071833;28;20048;-80
2023/12/05 08:59:48;;;;;;;38.25;20.92;;;-0.10;99.90;;;;;;5091510;28;20056;-80
2023/12/05 09:02:14;;;;;;;41.55;20.30;;;1.50;99.90;;;;;;5074914;28;20108;-80
2023/12/05 09:04:40;;;;;;;40.67;20.80;;;-0.10;99.90;;;;;;5071283;28;20033;-80
2023/12/05 09:07:06;;;;;;;40.40;21.50;;;-0.10;99.90;;;;;;5092274;28;20036;-80
2023/12/05 09:09:34;;;;;;;38.13;20.25;;;0.00;99.90;;;;;;5060506;28;20066;-80
2023/12/05 09:12:00;;;;;;;39.15;21.20;;;0.80;99.90;;;;;;5092812;28;20487;-79
2023/12/05 09:14:26;;;;;;;43.67;21.27;;;1.00;99.90;;;;;;5055846;28;20071;-80
2023/12/05 09:16:52;;;;;;;36.03;21.38;;;-0.10;99.90;;;;;;5059701;28;20058;-80
2023/12/05 09:19:21;;;;;;;39.58;20.27;;;-0.10;99.90;;;;;;5057375;28;20056;-82
2023/12/05 09:21:46;;;;;;;34.10;19.00;;;-0.10;99.90;;;;;;5089250;28;20104;-80
2023/12/05 09:24:12;;;;;;;38.75;21.50;;;0.00;99.90;;;;;;5072062;28;20059;-79
2023/12/05 09:26:38;;;;;;;39.17;21.73;;;-0.10;99.90;;;;;;5090916;28;20063;-81
2023/12/05 09:29:03;;;;;;;37.40;20.90;;;1.40;99.90;;;;;;5090043;28;20044;-80
2023/12/05 09:31:30;;;;;;;35.28;19.92;;;-0.10;99.90;;;;;;5088788;28;20044;-79
2023/12/05 09:33:56;;;;;;;34.53;20.25;;;-0.10;99.90;;;;;;5058954;28;20048;-81
2023/12/05 09:36:22;;;;;;;37.75;19.83;;;-0.10;99.90;;;;;;5086344;28;20071;-79
2023/12/05 09:38:52;;;;;;;36.55;20.88;;;-0.10;99.90;;;;;;5103691;28;20048;-80
2023/12/05 09:41:18;;;;;;;34.33;20.33;;;0.00;99.90;;;;;;5070587;28;20071;-79
2023/12/05 09:43:48;;;;;;;37.05;20.05;;;0.00;99.90;;;;;;5069148;28;20044;-79
2023/12/05 09:46:20;;;;;;;35.47;20.52;;;0.00;99.90;;;;;;5055564;28;20045;-80
2023/12/05 09:48:47;;;;;;;37.30;19.70;;;1.70;99.90;;;;;;5043728;28;20104;-80
2023/12/05 09:51:15;;;;;;;36.53;20.45;;;0.00;99.90;;;;;;5054263;28;20127;-79
2023/12/05 09:53:43;;;;;;;38.35;19.77;;;0.00;99.90;;;;;;5076967;28;20041;-79
2023/12/05 09:56:10;;;;;;;38.10;20.00;;;0.60;99.90;;;;;;5050193;28;20033;-80
2023/12/05 09:58:41;;;;;;;35.53;20.30;;;0.10;99.90;;;;;;5061261;28;20097;-80
2023/12/05 10:01:09;;;;;;;36.08;20.20;;;0.10;99.90;;;;;;5057584;28;20045;-80
2023/12/05 10:03:38;;;;;;;41.97;21.63;;;0.10;99.90;;;;;;5063834;28;20136;-79
2023/12/05 10:06:06;;;;;;;33.60;21.35;;;0.10;99.90;;;;;;5077182;28;20303;-79
2023/12/05 10:08:35;;;;;;;36.88;21.98;;;0.10;99.90;;;;;;5082759;28;20074;-80
2023/12/05 10:11:04;;;;;;;34.95;19.98;;;0.10;99.90;;;;;;5068027;28;20150;-79
2023/12/05 10:13:30;;;;;;;;;;;0.10;99.90;;;;;;5071116;28;20076;-79
2023/12/05 10:15:58;;;;;;;41.30;19.23;;;0.00;99.90;;;;;;5059301;28;19921;-80
2023/12/05 10:18:27;;;;;;;36.95;20.70;;;0.20;99.90;;;;;;5076918;28;20041;-79
2023/12/05 10:20:53;;;;;;;35.97;18.27;;;0.20;99.90;;;;;;5091994;28;20455;-79
2023/12/05 10:23:19;;;;;;;39.65;21.40;;;0.20;99.90;;;;;;5089702;28;20048;-79
2023/12/05 10:25:45;;;;;;;35.97;21.33;;;0.20;99.90;;;;;;5086458;28;20048;-79
2023/12/05 10:28:14;;;;;;;38.42;22.88;;;0.20;99.90;;;;;;5041864;28;20053;-80
2023/12/05 10:30:42;;;;;;;39.88;21.23;;;0.20;99.90;;;;;;5068414;28;20035;-81
2023/12/05 10:33:19;;;;;;;43.90;22.58;;;0.20;99.90;;;;;;5069861;28;20040;-79
2023/12/05 10:35:47;;;;;;;35.65;20.98;;;0.20;99.90;;;;;;5050551;28;20040;-80
2023/12/05 10:38:19;;;;;;;41.60;22.95;;;0.20;99.90;;;;;;5072631;28;20391;-80
2023/12/05 10:40:53;;;;;;;38.08;19.48;;;0.20;99.90;;;;;;5059874;28;20041;-80
2023/12/05 10:43:23;;;;;;;38.60;20.58;;;0.30;99.90;;;;;;5072753;28;20045;-78
2023/12/05 10:45:51;;;;;;;35.33;20.40;;;0.30;99.90;;;;;;5068475;28;20127;-78
2023/12/05 10:48:18;;;;;;;37.10;21.60;;;0.30;99.90;;;;;;5049296;28;20114;-80
2023/12/05 10:50:47;;;;;;;39.10;21.02;;;0.30;99.90;;;;;;5068271;28;20045;-79
2023/12/05 10:53:14;;;;;;;40.58;21.42;;;1.20;99.90;;;;;;5083670;28;20051;-79
2023/12/05 10:55:43;;;;;;;40.20;21.25;;;0.30;99.90;;;;;;5063096;28;20041;-79
2023/12/05 10:58:10;;;;;;;35.38;21.35;;;0.30;99.90;;;;;;5052761;28;20055;-79
2023/12/05 11:00:40;;;;;;;39.83;22.15;;;0.20;99.90;;;;;;5061513;28;20048;-79
2023/12/05 11:03:12;;;;;;;43.15;23.98;;;0.20;99.90;;;;;;5070583;28;20041;-79
2023/12/05 11:05:38;;;;;;;42.10;21.98;;;0.20;99.90;;;;;;5083219;28;20066;-79
2023/12/05 11:08:04;;;;;;;40.63;22.25;;;0.20;99.90;;;;;;5054219;28;20073;-79
2023/12/05 11:10:30;;;;;;;42.95;23.13;;;0.20;99.90;;;;;;5073168;28;20040;-80
2023/12/05 11:12:58;;;;;;;40.28;22.15;;;0.20;99.90;;;;;;5089065;28;20049;-79
2023/12/05 11:15:28;;;;;;;36.85;21.00;;;1.00;99.90;;;;;;5054901;28;20052;-82
2023/12/05 11:18:00;;;;;;;38.55;20.80;;;1.30;99.90;;;;;;5067748;28;20040;-79
2023/12/05 11:20:43;;;;;;;39.95;22.45;;;0.20;99.90;;;;;;5069901;28;20036;-80
2023/12/05 11:23:15;;;;;;;37.92;21.25;;;0.20;99.90;;;;;;5087578;28;20084;-79
2023/12/05 11:26:10;;;;;;;44.55;23.25;;;0.30;99.90;;;;;;5055668;28;20048;-80
2023/12/05 11:28:54;;;;;;;38.95;22.40;;;0.40;99.90;;;;;;5060337;28;20044;-81
2023/12/05 11:31:50;;;;;;;40.70;22.30;;;0.20;99.90;;;;;;5077095;28;20052;-80
2023/12/05 11:34:16;;;;;;;46.55;24.75;;;0.20;99.90;;;;;;5105803;28;20053;-80
2023/12/05 11:37:05;;;;;;;35.22;21.15;;;0.20;99.90;;;;;;5074253;28;20074;-80
2023/12/05 11:39:31;;;;;;;39.17;20.60;;;0.10;99.90;;;;;;5061158;28;20049;-81
2023/12/05 11:42:14;;;;;;;38.28;21.30;;;0.10;99.90;;;;;;5074147;28;20470;-81
2023/12/05 11:44:41;;;;;;;48.38;25.45;;;0.20;99.90;;;;;;5087990;28;20051;-79
2023/12/05 11:47:24;;;;;;;44.65;23.42;;;0.20;99.90;;;;;;5087193;28;20101;-81
2023/12/05 11:49:55;;;;;;;41.25;23.10;;;0.30;99.90;;;;;;5064044;28;20049;-82
2023/12/05 11:52:39;;;;;;;41.45;22.58;;;0.10;99.90;;;;;;5059297;28;20053;-81
2023/12/05 11:55:05;;;;;;;38.95;21.40;;;0.10;99.90;;;;;;5057819;28;20391;-80
2023/12/05 11:57:33;;;;;;;39.10;22.60;;;0.10;99.90;;;;;;5052741;28;20027;-80
2023/12/05 11:59:59;;;;;;;46.72;22.63;;;0.10;99.90;;;;;;5095178;28;20061;-80
2023/12/05 12:02:31;;;;;;;37.10;21.48;;;0.00;99.90;;;;;;5109505;28;20044;-80
2023/12/05 12:05:09;;;;;;;42.50;23.45;;;0.10;99.90;;;;;;5059854;28;20052;-82
2023/12/05 12:07:46;;;;;;;37.95;21.05;;;0.10;99.90;;;;;;5075881;28;20041;-83
2023/12/05 12:10:16;;;;;;;45.50;25.50;;;0.10;99.90;;;;;;5070272;28;20088;-83
2023/12/05 12:12:42;;;;;;;42.83;23.75;;;0.00;99.90;;;;;;5046944;28;20064;-83
2023/12/05 12:15:16;;;;;;;45.85;22.85;;;0.00;99.90;;;;;;5071335;28;20067;-81
2023/12/05 12:17:44;;;;;;;45.13;23.88;;;0.00;99.90;;;;;;5096548;28;20045;-81
2023/12/05 12:20:13;;;;;;;46.60;23.15;;;0.00;99.90;;;;;;5078365;28;20032;-83
2023/12/05 12:22:42;;;;;;;;;;;0.00;99.90;;;;;;5049530;28;20048;-83
2023/12/05 12:25:13;;;;;;;46.00;23.75;;;-0.10;99.90;;;;;;5062598;28;19955;-83
2023/12/05 12:27:54;;;;;;;;;;;;;;;;;;;;;
2023/12/05 12:30:24;;;;;;;43.60;24.65;;;0.60;99.90;;;;;;5094636;28;20036;-81
2023/12/05 12:32:58;;;;;;;45.00;23.95;;;-0.40;99.90;;;;;;5060346;28;20052;-81
2023/12/05 12:35:24;;;;;;;42.20;24.15;;;0.90;99.90;;;;;;5052190;28;20129;-82